Terminal Aerodrome Forecast
Issued by NWS

Home | Current Version | Previous Version | Text Only | Print | Product List | Glossary Off
Versions: 1 2 3 4 5 6 7 8 9 10 11 12 13 14 15 16 17 18 19 20 21 22 23 24 25 26 27 28 29 30 31

000
FTUS43 KABR 181124
TAFPIR
TAF
KPIR 181124Z 1812/1912 14010KT P6SM BKN130 WS020/25035KT
     FM181500 29008KT P6SM BKN200
     FM181900 33015G22KT P6SM BKN015
     FM182300 36016G23KT P6SM OVC030
     FM190300 01015KT 1SM -SN OVC010=

USA.gov is the U.S. government's official web portal to all federal, state and local government web resources and services.